createdAt,value
2022-08-04T00:00:10.667Z,20.01
2022-08-04T00:03:26.626Z,19.98
2022-08-04T00:07:08.167Z,19.96
2022-08-04T00:10:09.791Z,19.91
2022-08-04T00:13:11.455Z,19.90
2022-08-04T00:16:14.397Z,19.86
2022-08-04T00:19:21.690Z,19.84
2022-08-04T00:22:28.512Z,19.83
2022-08-04T00:25:30.028Z,19.82
2022-08-04T00:28:31.510Z,19.88
2022-08-04T00:31:55.992Z,19.94
2022-08-04T00:34:57.267Z,19.94
2022-08-04T00:38:00.169Z,19.88
2022-08-04T00:41:36.065Z,19.80
2022-08-04T00:45:24.603Z,19.69
2022-08-04T00:49:01.511Z,19.63
2022-08-04T00:52:32.673Z,19.56
2022-08-04T00:55:46.185Z,19.56
2022-08-04T00:58:53.709Z,19.53
2022-08-04T01:02:14.506Z,19.52
2022-08-04T01:05:27.552Z,19.51
2022-08-04T01:08:41.046Z,19.51
2022-08-04T01:12:07.933Z,19.50
2022-08-04T01:15:59.939Z,19.51
2022-08-04T01:19:24.322Z,19.54
2022-08-04T01:22:31.576Z,19.52
2022-08-04T01:25:51.855Z,19.48
2022-08-04T01:29:12.446Z,19.44
2022-08-04T01:32:25.859Z,19.47
2022-08-04T01:35:47.265Z,19.50
2022-08-04T01:38:50.234Z,19.45
2022-08-04T01:41:58.433Z,19.41
2022-08-04T01:45:04.283Z,19.41
2022-08-04T01:48:07.699Z,19.40
2022-08-04T01:51:09.541Z,19.29
2022-08-04T01:54:12.684Z,19.25
2022-08-04T01:57:36.917Z,19.28
2022-08-04T02:00:41.887Z,19.30
2022-08-04T02:04:18.763Z,19.40
2022-08-04T02:07:27.972Z,19.44
2022-08-04T02:10:35.661Z,19.54
2022-08-04T02:14:02.874Z,19.55
2022-08-04T02:17:11.049Z,19.56
2022-08-04T02:20:18.976Z,19.56
2022-08-04T02:23:35.713Z,19.54
2022-08-04T02:26:41.271Z,19.51
2022-08-04T02:29:56.879Z,19.48
2022-08-04T02:33:03.394Z,19.44
2022-08-04T02:36:09.262Z,19.49
2022-08-04T02:39:12.321Z,19.47
2022-08-04T02:42:15.298Z,19.42
2022-08-04T02:45:19.308Z,19.43
2022-08-04T02:48:29.982Z,19.40
2022-08-04T02:51:40.314Z,19.40
2022-08-04T02:54:44.628Z,19.37
2022-08-04T02:57:47.675Z,19.36
2022-08-04T03:00:51.088Z,19.30
2022-08-04T03:04:24.296Z,19.27
2022-08-04T03:07:56.389Z,19.25
2022-08-04T03:11:13.105Z,19.27
2022-08-04T03:14:47.373Z,19.29
2022-08-04T03:18:26.785Z,19.31
2022-08-04T03:22:05.649Z,19.29
2022-08-04T03:25:57.162Z,19.32
2022-08-04T03:29:37.684Z,19.40
2022-08-04T03:33:14.426Z,19.34
2022-08-04T03:36:52.927Z,19.34
2022-08-04T03:40:08.997Z,19.38
2022-08-04T03:43:58.842Z,19.39
2022-08-04T03:47:13.465Z,19.37
2022-08-04T03:50:34.181Z,19.32
2022-08-04T03:54:02.864Z,19.36
2022-08-04T03:57:19.953Z,19.39
2022-08-04T04:00:40.307Z,19.36
2022-08-04T04:03:57.293Z,19.30
2022-08-04T04:07:35.768Z,19.25
2022-08-04T04:11:22.792Z,19.21
2022-08-04T04:14:46.037Z,19.20
2022-08-04T04:18:19.792Z,19.22
2022-08-04T04:21:51.146Z,19.30
2022-08-04T04:25:19.090Z,19.38
2022-08-04T04:28:46.979Z,19.39
2022-08-04T04:32:16.066Z,19.38
2022-08-04T04:35:35.482Z,19.42
2022-08-04T04:39:06.969Z,19.47
2022-08-04T04:42:14.426Z,19.54
2022-08-04T04:45:24.743Z,19.65
2022-08-04T04:48:41.302Z,19.71
2022-08-04T04:51:49.954Z,19.76
2022-08-04T04:55:00.324Z,19.84
2022-08-04T04:58:02.461Z,19.88
2022-08-04T05:01:12.494Z,19.96
2022-08-04T05:04:32.624Z,20.02
2022-08-04T05:07:57.015Z,20.08
2022-08-04T05:11:07.058Z,20.14
2022-08-04T05:14:38.963Z,20.18
2022-08-04T05:17:39.484Z,20.17
2022-08-04T05:20:46.244Z,20.26
2022-08-04T05:23:54.694Z,20.29
2022-08-04T05:27:03.568Z,20.32
2022-08-04T05:30:06.498Z,20.29
2022-08-04T05:33:12.545Z,20.26
2022-08-04T05:36:35.316Z,20.21
2022-08-04T05:39:49.722Z,20.28
2022-08-04T05:42:51.778Z,20.39
2022-08-04T05:45:54.608Z,20.37
2022-08-04T05:48:56.165Z,20.31
2022-08-04T05:52:02.855Z,20.28
2022-08-04T05:55:06.112Z,20.32
2022-08-04T05:58:08.273Z,20.51
2022-08-04T06:01:12.238Z,20.67
2022-08-04T06:04:15.441Z,20.74
2022-08-04T06:07:17.269Z,20.58
2022-08-04T06:10:18.971Z,20.54
2022-08-04T06:13:48.919Z,20.42
2022-08-04T06:16:52.341Z,20.42
2022-08-04T06:20:19.985Z,20.50
2022-08-04T06:23:20.472Z,20.67
2022-08-04T06:26:23.060Z,20.70
2022-08-04T06:29:27.204Z,20.74
2022-08-04T06:32:34.615Z,20.90
2022-08-04T06:35:37.456Z,21.18
2022-08-04T06:38:40.975Z,21.40
2022-08-04T06:42:17.509Z,21.82
2022-08-04T06:45:06.083Z,21.81
2022-08-04T06:48:11.554Z,21.85
2022-08-04T06:51:26.758Z,21.91
2022-08-04T06:54:34.667Z,22.16
2022-08-04T06:57:36.879Z,22.30
2022-08-04T07:00:40.376Z,22.47
2022-08-04T07:03:42.841Z,22.66
2022-08-04T07:06:44.342Z,22.65
2022-08-04T07:09:46.012Z,22.64
2022-08-04T07:12:48.278Z,23.14
2022-08-04T07:15:50.139Z,23.45
2022-08-04T07:18:51.786Z,24.00
2022-08-04T07:22:17.833Z,24.60
2022-08-04T07:25:16.272Z,25.38
2022-08-04T07:28:17.973Z,25.54
2022-08-04T07:31:32.449Z,25.57
2022-08-04T07:34:38.243Z,26.16
2022-08-04T07:37:40.303Z,26.31
2022-08-04T07:40:41.915Z,26.71
2022-08-04T07:43:43.501Z,27.64
2022-08-04T07:46:45.962Z,27.44
2022-08-04T07:49:57.017Z,26.46
2022-08-04T07:53:52.586Z,26.86
2022-08-04T07:56:21.967Z,28.67
2022-08-04T07:59:23.429Z,29.05
2022-08-04T08:02:25.463Z,28.74
2022-08-04T08:05:27.563Z,27.85
2022-08-04T08:08:29.450Z,27.90
2022-08-04T08:12:38.720Z,26.99
2022-08-04T08:14:52.803Z,26.59
2022-08-04T08:17:59.705Z,26.64
2022-08-04T08:21:02.482Z,26.18
2022-08-04T08:24:08.519Z,26.21
2022-08-04T08:27:14.564Z,27.42
2022-08-04T08:30:16.015Z,28.89
2022-08-04T08:33:17.966Z,29.81
2022-08-04T08:36:31.837Z,29.21
2022-08-04T08:39:47.554Z,30.00
2022-08-04T08:44:00.706Z,28.60
2022-08-04T08:46:49.733Z,28.63
2022-08-04T08:50:04.598Z,29.30
2022-08-04T08:53:38.515Z,29.67
2022-08-04T08:56:39.926Z,28.92
2022-08-04T09:00:00.535Z,29.14
2022-08-04T09:03:44.134Z,27.45
2022-08-04T09:07:03.948Z,27.81
2022-08-04T09:10:37.573Z,27.06
2022-08-04T09:13:47.999Z,26.71
2022-08-04T09:16:56.800Z,27.19
2022-08-04T09:20:09.453Z,27.36
2022-08-04T09:23:48.913Z,28.01
2022-08-04T09:27:00.110Z,27.38
2022-08-04T09:30:07.664Z,26.57
2022-08-04T09:33:44.816Z,26.52
2022-08-04T09:37:02.531Z,26.77
2022-08-04T09:40:53.247Z,26.58
2022-08-04T09:44:50.228Z,26.50
2022-08-04T09:48:06.776Z,26.41
2022-08-04T09:51:20.769Z,26.30
2022-08-04T09:54:40.061Z,26.24
2022-08-04T09:58:06.028Z,25.88
2022-08-04T10:01:16.808Z,26.31
2022-08-04T10:04:22.241Z,25.82
2022-08-04T10:08:15.081Z,25.61
2022-08-04T10:11:21.294Z,25.99
2022-08-04T10:14:45.813Z,26.25
2022-08-04T10:18:07.373Z,26.57
2022-08-04T10:21:15.770Z,26.82
2022-08-04T10:24:48.455Z,26.92
2022-08-04T10:27:54.187Z,27.28
2022-08-04T10:31:00.855Z,26.72
2022-08-04T10:34:21.347Z,26.46
2022-08-04T10:37:59.118Z,26.35
2022-08-04T10:41:27.654Z,26.44
2022-08-04T10:45:06.889Z,27.00
2022-08-04T10:48:41.328Z,27.48
2022-08-04T10:51:58.607Z,27.90
2022-08-04T10:55:14.845Z,27.98
2022-08-04T10:58:23.412Z,29.17
2022-08-04T11:02:01.363Z,28.83
2022-08-04T11:05:24.329Z,28.80
2022-08-04T11:08:47.381Z,29.58
2022-08-04T11:12:04.743Z,30.59
2022-08-04T11:15:12.930Z,30.31
2022-08-04T11:18:25.460Z,30.41
2022-08-04T11:21:33.307Z,29.95
2022-08-04T11:24:59.560Z,30.43
2022-08-04T11:28:37.252Z,31.02
2022-08-04T11:31:49.742Z,30.27
2022-08-04T11:34:59.799Z,30.25
2022-08-04T11:38:21.150Z,30.55
2022-08-04T11:41:53.126Z,30.66
2022-08-04T11:45:02.810Z,30.26
2022-08-04T11:48:17.973Z,29.76
2022-08-04T11:51:20.906Z,30.28
2022-08-04T11:54:22.420Z,29.28
2022-08-04T11:57:35.240Z,29.07
2022-08-04T12:00:42.279Z,29.37
2022-08-04T12:04:03.717Z,29.50
2022-08-04T12:07:30.673Z,28.81
2022-08-04T12:11:15.297Z,28.75
2022-08-04T12:14:37.218Z,29.36
2022-08-04T12:17:52.547Z,29.36
2022-08-04T12:21:03.446Z,28.77
2022-08-04T12:24:19.752Z,29.03
2022-08-04T12:27:26.064Z,29.14
2022-08-04T12:30:58.446Z,29.83
2022-08-04T12:34:12.936Z,29.65
2022-08-04T12:37:22.251Z,29.09
2022-08-04T12:40:29.906Z,29.24
2022-08-04T12:43:39.609Z,28.93
2022-08-04T12:46:47.073Z,29.03
2022-08-04T12:49:56.294Z,28.79
2022-08-04T12:53:12.259Z,28.65
2022-08-04T12:56:28.138Z,29.02
2022-08-04T12:59:29.696Z,29.14
2022-08-04T13:02:42.722Z,29.32
2022-08-04T13:05:45.377Z,29.68
2022-08-04T13:08:47.733Z,29.09
2022-08-04T13:12:14.705Z,29.54
2022-08-04T13:15:20.426Z,29.27
2022-08-04T13:18:26.071Z,28.59
2022-08-04T13:21:49.808Z,29.28
2022-08-04T13:25:18.155Z,29.08
2022-08-04T13:28:21.407Z,28.84
2022-08-04T13:31:27.295Z,29.04
2022-08-04T13:34:42.453Z,28.55
2022-08-04T13:37:54.667Z,28.36
2022-08-04T13:41:05.321Z,29.00
2022-08-04T13:44:18.279Z,28.23
2022-08-04T13:47:27.526Z,28.41
2022-08-04T13:50:30.980Z,28.98
2022-08-04T13:53:34.149Z,29.08
2022-08-04T13:56:44.566Z,29.16
2022-08-04T13:59:59.934Z,28.67
2022-08-04T14:03:23.645Z,28.22
2022-08-04T14:06:33.883Z,29.01
2022-08-04T14:09:38.838Z,28.72
2022-08-04T14:12:49.130Z,28.60
2022-08-04T14:16:01.939Z,28.27
2022-08-04T14:19:05.554Z,27.90
2022-08-04T14:22:09.096Z,27.93
2022-08-04T14:25:17.445Z,27.68
2022-08-04T14:29:01.061Z,28.29
2022-08-04T14:32:00.923Z,28.33
2022-08-04T14:35:10.732Z,27.95
2022-08-04T14:38:12.331Z,28.13
2022-08-04T14:41:15.147Z,27.58
2022-08-04T14:44:16.836Z,27.35
2022-08-04T14:47:18.339Z,27.39
2022-08-04T14:50:20.526Z,27.77
2022-08-04T14:53:24.472Z,27.81
2022-08-04T14:56:45.231Z,27.59
2022-08-04T15:00:00.589Z,27.45
2022-08-04T15:03:09.725Z,27.64
2022-08-04T15:06:16.189Z,27.84
2022-08-04T15:09:21.127Z,27.60
2022-08-04T15:12:23.291Z,27.35
2022-08-04T15:15:36.465Z,27.16
2022-08-04T15:18:39.384Z,27.66
2022-08-04T15:21:41.182Z,27.85
2022-08-04T15:24:42.640Z,27.95
2022-08-04T15:27:48.634Z,27.69
2022-08-04T15:30:53.465Z,26.96
2022-08-04T15:33:56.521Z,26.49
2022-08-04T15:36:58.068Z,26.54
2022-08-04T15:40:03.293Z,26.38
2022-08-04T15:43:17.129Z,26.39
2022-08-04T15:46:46.304Z,26.44
2022-08-04T15:50:04.772Z,25.57
2022-08-04T15:53:10.478Z,25.26
2022-08-04T15:56:24.135Z,25.24
2022-08-04T15:59:59.127Z,25.26
2022-08-04T16:03:00.709Z,25.17
2022-08-04T16:06:12.903Z,25.11
2022-08-04T16:09:23.410Z,24.95
2022-08-04T16:12:54.937Z,24.93
2022-08-04T16:16:03.379Z,24.51
2022-08-04T16:19:35.306Z,24.54
2022-08-04T16:22:40.265Z,24.44
2022-08-04T16:25:46.522Z,24.40
2022-08-04T16:28:48.209Z,24.12
2022-08-04T16:32:05.093Z,24.31
2022-08-04T16:35:20.757Z,24.27
2022-08-04T16:38:22.238Z,24.08
2022-08-04T16:41:43.163Z,24.05
2022-08-04T16:45:02.639Z,23.85
2022-08-04T16:48:07.633Z,23.93
2022-08-04T16:51:11.989Z,23.87
2022-08-04T16:54:13.827Z,23.72
2022-08-04T16:57:15.489Z,23.49
2022-08-04T17:00:18.940Z,23.20
2022-08-04T17:03:21.072Z,23.04
2022-08-04T17:06:22.561Z,22.90
2022-08-04T17:09:28.446Z,22.77
2022-08-04T17:12:30.281Z,22.76
2022-08-04T17:15:31.751Z,22.57
2022-08-04T17:18:46.054Z,22.59
2022-08-04T17:21:48.227Z,22.66
2022-08-04T17:24:49.875Z,22.82
2022-08-04T17:28:09.237Z,22.87
2022-08-04T17:31:23.676Z,22.86
2022-08-04T17:34:26.353Z,22.73
2022-08-04T17:37:38.848Z,22.53
2022-08-04T17:40:57.237Z,22.49
2022-08-04T17:44:06.673Z,22.39
2022-08-04T17:47:17.233Z,22.28
2022-08-04T17:50:30.328Z,22.33
2022-08-04T17:54:01.704Z,22.46
2022-08-04T17:56:59.380Z,22.58
2022-08-04T18:00:00.866Z,22.33
2022-08-04T18:03:02.400Z,22.22
2022-08-04T18:06:13.392Z,22.14
2022-08-04T18:10:02.421Z,22.00
2022-08-04T18:12:52.570Z,21.63
2022-08-04T18:16:02.548Z,21.51
2022-08-04T18:19:08.818Z,21.43
2022-08-04T18:22:16.683Z,21.36
2022-08-04T18:25:51.059Z,21.24
2022-08-04T18:28:51.241Z,21.17
2022-08-04T18:31:52.675Z,21.10
2022-08-04T18:34:56.261Z,20.97
2022-08-04T18:38:22.100Z,20.89
2022-08-04T18:41:27.556Z,20.84
2022-08-04T18:44:30.748Z,20.83
2022-08-04T18:47:32.894Z,20.84
2022-08-04T18:51:11.027Z,20.72
2022-08-04T18:54:23.427Z,20.69
2022-08-04T18:57:59.357Z,20.52
2022-08-04T19:00:51.574Z,20.48
2022-08-04T19:03:57.568Z,20.47
2022-08-04T19:07:23.201Z,20.42
2022-08-04T19:10:23.691Z,20.33
2022-08-04T19:13:28.293Z,20.33
2022-08-04T19:16:38.563Z,20.17
2022-08-04T19:19:47.917Z,20.12
2022-08-04T19:24:23.446Z,20.05
2022-08-04T19:29:41.211Z,19.99
2022-08-04T19:32:48.216Z,19.87
2022-08-04T19:35:50.792Z,19.84
2022-08-04T19:38:56.034Z,19.87
2022-08-04T19:42:05.662Z,19.84
2022-08-04T19:45:09.911Z,19.87
2022-08-04T19:48:19.811Z,19.89
2022-08-04T19:51:21.786Z,19.86
2022-08-04T19:54:27.549Z,19.79
2022-08-04T19:57:29.134Z,19.80
2022-08-04T20:00:39.138Z,19.83
2022-08-04T20:07:41.457Z,19.85
2022-08-04T20:10:51.260Z,19.82
2022-08-04T20:13:54.677Z,19.74
2022-08-04T20:20:42.355Z,19.68
2022-08-04T20:23:50.138Z,19.65
2022-08-04T20:26:51.695Z,19.64
2022-08-04T20:29:55.518Z,19.62
2022-08-04T20:32:57.910Z,19.56
2022-08-04T20:36:05.018Z,19.55
2022-08-04T20:39:09.647Z,19.47
2022-08-04T20:42:12.311Z,19.46
2022-08-04T20:45:16.208Z,19.43
2022-08-04T20:48:18.221Z,19.43
2022-08-04T20:51:19.700Z,19.39
2022-08-04T20:54:30.381Z,19.34
2022-08-04T20:57:47.505Z,19.32
2022-08-04T21:04:11.922Z,19.29
2022-08-04T21:07:16.929Z,19.26
2022-08-04T21:13:50.743Z,19.18
2022-08-04T21:16:56.334Z,19.09
2022-08-04T21:19:57.997Z,19.05
2022-08-04T21:23:01.938Z,19.05
2022-08-04T21:26:04.829Z,19.07
2022-08-04T21:29:12.318Z,19.03
2022-08-04T21:32:13.756Z,18.98
2022-08-04T21:35:16.228Z,18.96
2022-08-04T21:38:18.222Z,18.94
2022-08-04T21:41:24.975Z,18.90
2022-08-04T21:44:28.524Z,18.84
2022-08-04T21:47:46.117Z,18.81
2022-08-04T21:50:51.499Z,18.76
2022-08-04T21:53:55.591Z,18.75
2022-08-04T21:56:59.498Z,18.73
2022-08-04T22:00:05.969Z,18.75
2022-08-04T22:03:51.899Z,18.70
2022-08-04T22:06:33.866Z,18.70
2022-08-04T22:09:41.177Z,18.64
2022-08-04T22:12:43.006Z,18.60
2022-08-04T22:16:03.884Z,18.54
2022-08-04T22:19:07.420Z,18.58
2022-08-04T22:22:12.612Z,18.54
2022-08-04T22:25:31.219Z,18.54
2022-08-04T22:28:32.853Z,18.50
2022-08-04T22:31:56.186Z,18.56
2022-08-04T22:34:55.762Z,18.50
2022-08-04T22:38:06.107Z,18.49
2022-08-04T22:41:13.610Z,18.45
2022-08-04T22:44:16.208Z,18.53
2022-08-04T22:47:20.635Z,18.54
2022-08-04T22:50:27.903Z,18.50
2022-08-04T22:53:30.147Z,18.42
2022-08-04T22:56:38.497Z,18.35
2022-08-04T22:59:43.166Z,18.21
2022-08-04T23:02:44.976Z,18.19
2022-08-04T23:05:49.507Z,18.16
2022-08-04T23:08:51.089Z,18.12
2022-08-04T23:12:08.687Z,18.07
2022-08-04T23:15:14.843Z,18.08
2022-08-04T23:18:19.783Z,18.10
2022-08-04T23:21:24.058Z,18.02
2022-08-04T23:24:25.896Z,17.97
2022-08-04T23:27:39.070Z,17.96
2022-08-04T23:30:44.596Z,17.94
2022-08-04T23:33:51.019Z,17.92
2022-08-04T23:36:53.439Z,17.90
2022-08-04T23:40:14.219Z,17.90
2022-08-04T23:43:18.930Z,17.97
2022-08-04T23:46:20.425Z,18.00
2022-08-04T23:49:22.340Z,17.99
2022-08-04T23:52:29.813Z,17.99
2022-08-04T23:55:32.518Z,18.00
2022-08-04T23:58:35.541Z,17.98
